Time;durP1;ratioP1;P1;durP2;ratioP2;P2;SDS_P1;SDS_P2;PMS_P1;PMS_P2;Temp;Humidity;BMP_temperature;BMP_pressure;BME280_temperature;BME280_humidity;BME280_pressure;Samples;Min_cycle;Max_cycle;Signal;HPM_P1;HPM_P2
2024/03/06 05:30:47;;;;;;;0.10;0.10;;;2.80;87.00;;;;;;5625911;23;20060;-77
2024/03/06 05:33:13;;;;;;;0.10;0.10;;;2.90;87.20;;;;;;4843095;29;20083;-76
2024/03/06 05:35:39;;;;;;;0.10;0.10;;;3.00;87.20;;;;;;4856840;29;20030;-77
2024/03/06 05:38:04;;;;;;;0.20;0.20;;;2.90;87.10;;;;;;4863839;29;20406;-77
2024/03/06 05:40:34;;;;;;;0.20;0.20;;;2.90;87.00;;;;;;4859894;29;20034;-77
2024/03/06 05:43:00;;;;;;;0.20;0.20;;;2.80;87.10;;;;;;4845020;29;20503;-77
2024/03/06 05:45:25;;;;;;;0.10;0.10;;;2.80;87.00;;;;;;4857161;29;20056;-77
2024/03/06 05:47:51;;;;;;;0.10;0.10;;;2.80;87.00;;;;;;4863570;29;20029;-76
2024/03/06 05:50:18;;;;;;;0.10;0.10;;;2.80;86.60;;;;;;4851089;29;20116;-81
2024/03/06 05:52:44;;;;;;;0.10;0.10;;;2.80;86.40;;;;;;4845508;29;20030;-77
2024/03/06 05:55:10;;;;;;;0.17;0.17;;;2.70;86.00;;;;;;4845139;29;20037;-79
2024/03/06 05:57:35;;;;;;;0.20;0.20;;;2.60;85.90;;;;;;4828535;29;20034;-79
2024/03/06 06:00:02;;;;;;;0.10;0.10;;;2.50;85.90;;;;;;4844904;29;20068;-79
2024/03/06 06:02:27;;;;;;;0.20;0.20;;;2.50;85.90;;;;;;4859374;29;20097;-79
2024/03/06 06:04:53;;;;;;;0.17;0.17;;;2.60;86.50;;;;;;4857094;29;20053;-79
2024/03/06 06:07:18;;;;;;;0.10;0.10;;;2.60;86.40;;;;;;4863604;29;20049;-79
2024/03/06 06:09:44;;;;;;;0.10;0.10;;;2.60;86.40;;;;;;4857648;29;20034;-76
2024/03/06 06:12:10;;;;;;;0.10;0.10;;;2.60;86.50;;;;;;4848529;29;20487;-78
2024/03/06 06:14:36;;;;;;;0.10;0.10;;;2.60;86.40;;;;;;4848698;29;20053;-78
2024/03/06 06:17:02;;;;;;;0.10;0.10;;;2.60;86.50;;;;;;4848732;29;20033;-77
2024/03/06 06:19:28;;;;;;;0.10;0.10;;;2.60;86.50;;;;;;4850699;29;20033;-79
2024/03/06 06:21:54;;;;;;;0.20;0.20;;;2.60;86.60;;;;;;4858513;29;20022;-78
2024/03/06 06:24:20;;;;;;;0.10;0.10;;;2.60;86.80;;;;;;4866575;29;20041;-78
2024/03/06 06:26:45;;;;;;;0.10;0.10;;;2.60;86.60;;;;;;4848898;29;20551;-78
2024/03/06 06:29:11;;;;;;;0.17;0.17;;;2.60;86.80;;;;;;4864817;29;20037;-79
2024/03/06 06:31:37;;;;;;;0.20;0.20;;;2.60;86.70;;;;;;4866778;29;20061;-78
2024/03/06 06:34:02;;;;;;;0.17;0.17;;;2.60;86.80;;;;;;4867029;29;20040;-78
2024/03/06 06:36:29;;;;;;;0.10;0.10;;;2.60;86.80;;;;;;4855185;29;20185;-79
2024/03/06 06:38:55;;;;;;;0.20;0.20;;;2.60;86.80;;;;;;4848492;29;20423;-79
2024/03/06 06:41:20;;;;;;;0.20;0.20;;;2.70;86.70;;;;;;4845587;29;20187;-78
2024/03/06 06:43:46;;;;;;;0.10;0.10;;;2.70;86.40;;;;;;4866967;29;20034;-79
2024/03/06 06:46:12;;;;;;;0.20;0.20;;;2.70;86.30;;;;;;4853625;29;20030;-79
2024/03/06 06:48:37;;;;;;;0.10;0.10;;;2.70;86.20;;;;;;4850465;29;20039;-83
2024/03/06 06:51:03;;;;;;;0.10;0.10;;;2.70;86.40;;;;;;4862878;29;20064;-79
2024/03/06 06:53:32;;;;;;;0.20;0.20;;;2.70;86.00;;;;;;4852531;29;20037;-79
2024/03/06 06:55:58;;;;;;;0.20;0.20;;;2.70;86.10;;;;;;4846962;29;20042;-79
2024/03/06 06:58:26;;;;;;;0.20;0.20;;;2.70;86.20;;;;;;4847767;29;20456;-79
2024/03/06 07:00:52;;;;;;;0.20;0.20;;;2.70;86.10;;;;;;4848459;29;20033;-79
2024/03/06 07:03:18;;;;;;;0.20;0.20;;;2.80;86.00;;;;;;4846913;29;20026;-79
2024/03/06 07:05:43;;;;;;;0.20;0.20;;;2.80;86.00;;;;;;4852736;29;20135;-79
2024/03/06 07:08:09;;;;;;;0.10;0.10;;;2.70;86.00;;;;;;4847925;29;20083;-79
2024/03/06 07:10:35;;;;;;;0.20;0.20;;;2.80;86.10;;;;;;4847529;29;20553;-79
2024/03/06 07:13:02;;;;;;;0.10;0.10;;;2.80;86.20;;;;;;4845916;29;20071;-79
2024/03/06 07:15:28;;;;;;;0.20;0.20;;;2.90;86.20;;;;;;4848373;29;20038;-79
2024/03/06 07:17:54;;;;;;;0.20;0.20;;;3.00;86.40;;;;;;4848265;29;20426;-79
2024/03/06 07:20:20;;;;;;;0.20;0.20;;;3.00;86.50;;;;;;4830934;29;20094;-79
2024/03/06 07:22:46;;;;;;;0.10;0.10;;;3.00;86.60;;;;;;4863221;29;20033;-79
2024/03/06 07:25:11;;;;;;;0.20;0.20;;;3.10;86.50;;;;;;4866102;29;20017;-79
2024/03/06 07:27:37;;;;;;;0.20;0.20;;;3.20;86.40;;;;;;4857765;29;20034;-79
2024/03/06 07:30:03;;;;;;;0.20;0.20;;;3.30;86.30;;;;;;4847471;29;20058;-79
2024/03/06 07:32:28;;;;;;;0.20;0.20;;;3.60;86.00;;;;;;4847719;29;20065;-79
2024/03/06 07:34:54;;;;;;;0.20;0.20;;;4.00;85.40;;;;;;4858061;29;20470;-79
2024/03/06 07:37:21;;;;;;;0.20;0.20;;;4.30;84.80;;;;;;4849138;29;20034;-78
2024/03/06 07:39:46;;;;;;;0.30;0.30;;;4.60;84.20;;;;;;4858536;29;20033;-78
2024/03/06 07:42:12;;;;;;;0.30;0.30;;;5.20;82.70;;;;;;4849346;29;20053;-79
2024/03/06 07:44:38;;;;;;;0.30;0.30;;;5.70;81.80;;;;;;4865807;29;20026;-79
2024/03/06 07:47:04;;;;;;;0.50;0.50;;;6.40;80.60;;;;;;4845258;29;20042;-79
2024/03/06 07:49:30;;;;;;;0.50;0.50;;;7.60;78.00;;;;;;4847506;29;20069;-79
2024/03/06 07:51:57;;;;;;;0.40;0.40;;;9.20;73.90;;;;;;4847641;29;20055;-79
2024/03/06 07:54:23;;;;;;;0.40;0.40;;;10.40;70.70;;;;;;4845486;29;20034;-79
2024/03/06 07:56:49;;;;;;;0.40;0.40;;;11.20;67.90;;;;;;4847662;29;20534;-79
2024/03/06 07:59:16;;;;;;;0.40;0.40;;;11.80;65.10;;;;;;4847024;29;20026;-77
2024/03/06 08:01:42;;;;;;;0.40;0.40;;;12.00;62.90;;;;;;4847315;29;20141;-79
2024/03/06 08:04:07;;;;;;;0.20;0.20;;;12.10;62.40;;;;;;4850565;29;20072;-77
2024/03/06 08:06:33;;;;;;;0.40;0.40;;;11.70;63.00;;;;;;4862360;29;20037;-79
2024/03/06 08:08:59;;;;;;;0.50;0.50;;;10.90;64.40;;;;;;4846826;29;20034;-78
2024/03/06 08:11:25;;;;;;;0.30;0.30;;;10.60;65.40;;;;;;4847882;29;20467;-77
2024/03/06 08:13:57;;;;;;;0.50;0.50;;;11.10;65.00;;;;;;4843783;29;20038;-77
2024/03/06 08:16:23;;;;;;;0.40;0.40;;;10.60;65.30;;;;;;4845605;29;20074;-77
2024/03/06 08:18:49;;;;;;;0.30;0.30;;;10.50;66.60;;;;;;4856439;29;20046;-77
2024/03/06 08:21:14;;;;;;;0.50;0.50;;;10.50;66.20;;;;;;4864941;29;20082;-76
2024/03/06 08:23:40;;;;;;;0.30;0.30;;;10.30;67.00;;;;;;4849205;29;20033;-77
2024/03/06 08:26:06;;;;;;;0.47;0.47;;;10.20;67.30;;;;;;4845945;29;20035;-76
2024/03/06 08:28:31;;;;;;;0.80;0.80;;;10.10;67.00;;;;;;4846372;29;20109;-76
2024/03/06 08:30:57;;;;;;;0.30;0.30;;;10.20;67.80;;;;;;4827054;29;20058;-75
2024/03/06 08:33:22;;;;;;;0.30;0.30;;;10.20;68.20;;;;;;4828415;29;20038;-76
2024/03/06 08:35:48;;;;;;;0.20;0.20;;;10.20;67.90;;;;;;4845226;29;20086;-76
2024/03/06 08:38:14;;;;;;;0.30;0.30;;;10.10;68.00;;;;;;4846100;29;20102;-75
2024/03/06 08:40:41;;;;;;;0.40;0.40;;;9.90;68.30;;;;;;4846227;29;20034;-76
2024/03/06 08:43:08;;;;;;;0.60;0.60;;;10.00;69.20;;;;;;4845413;29;20054;-76
2024/03/06 08:45:34;;;;;;;0.50;0.50;;;10.40;68.30;;;;;;4845908;29;20053;-76
2024/03/06 08:48:00;;;;;;;0.50;0.50;;;11.10;67.20;;;;;;4846082;29;20069;-76
2024/03/06 08:50:26;;;;;;;0.80;0.80;;;11.80;65.50;;;;;;4841263;29;20038;-76
2024/03/06 08:52:51;;;;;;;0.80;0.80;;;12.30;64.10;;;;;;4835325;29;20402;-76
2024/03/06 08:55:17;;;;;;;1.15;1.15;;;12.40;62.90;;;;;;4843072;29;20478;-77
2024/03/06 08:57:43;;;;;;;0.50;0.50;;;12.80;63.00;;;;;;4844206;29;20121;-77
2024/03/06 09:00:10;;;;;;;0.50;0.50;;;13.20;62.20;;;;;;4857919;29;20406;-76
2024/03/06 09:02:36;;;;;;;1.10;1.10;;;13.60;60.70;;;;;;4843139;29;20018;-76
2024/03/06 09:05:04;;;;;;;0.40;0.40;;;13.70;60.60;;;;;;4845445;29;20113;-77
2024/03/06 09:07:30;;;;;;;0.40;0.40;;;13.80;60.00;;;;;;4841148;29;20026;-76
2024/03/06 09:09:56;;;;;;;0.30;0.30;;;13.60;60.10;;;;;;4845685;29;20026;-77
2024/03/06 09:12:22;;;;;;;0.80;0.80;;;12.80;61.30;;;;;;4841510;29;20054;-76
2024/03/06 09:14:48;;;;;;;1.00;1.00;;;12.20;63.00;;;;;;4838249;29;20044;-76
2024/03/06 09:17:14;;;;;;;0.40;0.40;;;12.20;63.50;;;;;;4845191;29;20034;-77
2024/03/06 09:19:40;;;;;;;1.00;1.00;;;12.30;63.20;;;;;;4841617;29;20124;-75
2024/03/06 09:22:07;;;;;;;0.40;0.40;;;12.50;63.10;;;;;;4839188;29;20037;-76
2024/03/06 09:24:33;;;;;;;0.40;0.40;;;12.30;62.90;;;;;;4834804;29;20030;-75
2024/03/06 09:26:58;;;;;;;0.20;0.20;;;12.10;64.10;;;;;;4835557;29;20030;-75
2024/03/06 09:29:24;;;;;;;0.40;0.40;;;12.10;64.70;;;;;;4835319;29;20030;-75
2024/03/06 09:31:50;;;;;;;0.80;0.80;;;12.20;65.00;;;;;;4838147;29;20411;-75
2024/03/06 09:34:15;;;;;;;1.40;1.30;;;12.00;65.40;;;;;;4839355;29;20109;-76
2024/03/06 09:36:46;;;;;;;1.60;1.50;;;12.20;65.10;;;;;;4838242;29;20022;-75
2024/03/06 09:39:15;;;;;;;2.22;2.13;;;12.60;64.00;;;;;;4838665;29;20065;-81
2024/03/06 09:41:41;;;;;;;1.70;1.60;;;12.90;63.40;;;;;;4841084;29;20025;-83
2024/03/06 09:44:07;;;;;;;2.47;2.28;;;13.30;62.80;;;;;;4839743;29;20034;-78
2024/03/06 09:46:34;;;;;;;3.08;2.88;;;14.30;61.10;;;;;;4834946;29;20031;-81
2024/03/06 09:49:01;;;;;;;3.10;2.90;;;15.10;58.40;;;;;;4838155;29;20030;-77
2024/03/06 09:51:28;;;;;;;3.25;3.05;;;15.60;55.50;;;;;;4837581;29;20026;-77
2024/03/06 09:53:54;;;;;;;3.00;2.80;;;16.20;55.50;;;;;;4836457;29;20030;-77
2024/03/06 09:56:20;;;;;;;3.15;2.95;;;16.60;53.20;;;;;;4836302;29;20069;-78
2024/03/06 09:58:46;;;;;;;3.00;2.80;;;16.80;52.40;;;;;;4836592;29;20472;-78
2024/03/06 10:01:16;;;;;;;3.00;2.80;;;17.00;53.00;;;;;;4834616;29;20037;-77
2024/03/06 10:03:43;;;;;;;3.25;3.05;;;16.90;52.10;;;;;;4835275;29;20517;-77
2024/03/06 10:06:09;;;;;;;3.00;2.80;;;16.80;51.10;;;;;;4837936;29;20429;-78
2024/03/06 10:08:37;;;;;;;2.88;2.67;;;16.50;52.30;;;;;;4833436;29;20121;-78
2024/03/06 10:11:04;;;;;;;2.60;2.40;;;16.60;53.80;;;;;;4839018;29;20040;-78
2024/03/06 10:13:30;;;;;;;2.60;2.40;;;16.50;53.00;;;;;;4835202;29;20049;-77
2024/03/06 10:16:04;;;;;;;2.50;2.30;;;16.20;53.60;;;;;;4836165;29;20026;-77
2024/03/06 10:18:32;;;;;;;2.10;2.00;;;15.50;54.30;;;;;;4836329;29;20035;-77
2024/03/06 10:20:58;;;;;;;0.10;0.10;;;15.10;57.30;;;;;;4837075;29;20097;-77
2024/03/06 10:23:24;;;;;;;0.10;0.10;;;14.40;59.10;;;;;;4837995;29;20030;-77
2024/03/06 10:25:52;;;;;;;0.10;0.10;;;13.70;60.00;;;;;;4833731;29;20022;-78
2024/03/06 10:28:19;;;;;;;0.10;0.10;;;13.30;63.00;;;;;;4834885;29;20026;-78
2024/03/06 10:30:45;;;;;;;0.10;0.10;;;13.00;64.30;;;;;;4839378;29;20046;-78
2024/03/06 10:33:12;;;;;;;0.10;0.10;;;12.80;65.60;;;;;;4854304;29;20105;-78
2024/03/06 10:35:41;;;;;;;0.10;0.10;;;12.70;65.30;;;;;;4839550;29;20091;-78
2024/03/06 10:38:08;;;;;;;0.10;0.10;;;12.50;66.20;;;;;;4835958;29;20121;-78
2024/03/06 10:40:39;;;;;;;0.10;0.10;;;12.10;65.80;;;;;;4842020;29;20519;-78
2024/03/06 10:43:06;;;;;;;0.10;0.10;;;11.90;67.70;;;;;;4853208;29;20026;-78
2024/03/06 10:45:46;;;;;;;0.10;0.10;;;11.70;66.80;;;;;;4860615;29;20085;-78
2024/03/06 10:48:14;;;;;;;0.10;0.10;;;11.70;66.80;;;;;;4844713;29;20085;-78
2024/03/06 10:50:43;;;;;;;0.10;0.10;;;11.60;67.10;;;;;;4861503;29;20030;-77
2024/03/06 10:53:10;;;;;;;0.10;0.10;;;11.70;67.50;;;;;;4860262;29;20510;-77
2024/03/06 10:55:36;;;;;;;0.10;0.10;;;11.70;67.20;;;;;;4860639;29;20025;-77
2024/03/06 10:58:08;;;;;;;0.10;0.10;;;11.60;66.90;;;;;;4848277;29;20112;-77
2024/03/06 11:00:36;;;;;;;0.10;0.10;;;11.60;68.10;;;;;;4865815;29;20018;-76
2024/03/06 11:03:07;;;;;;;0.10;0.10;;;11.60;67.10;;;;;;4859279;29;20033;-77
2024/03/06 11:05:35;;;;;;;0.10;0.10;;;11.70;68.30;;;;;;4857370;29;20450;-77
2024/03/06 11:08:01;;;;;;;0.10;0.10;;;11.70;68.40;;;;;;4855573;29;20033;-77
2024/03/06 11:10:33;;;;;;;0.10;0.10;;;11.80;68.10;;;;;;4834825;29;20502;-80
2024/03/06 11:13:00;;;;;;;0.10;0.10;;;11.80;67.00;;;;;;4860809;29;20044;-77
2024/03/06 11:15:25;;;;;;;0.10;0.10;;;11.80;66.70;;;;;;4857532;29;20498;-77
2024/03/06 11:17:54;;;;;;;0.10;0.10;;;11.90;66.00;;;;;;4853607;29;20118;-77
2024/03/06 11:20:19;;;;;;;0.10;0.10;;;11.90;65.90;;;;;;4845982;29;20443;-77
2024/03/06 11:23:08;;;;;;;0.10;0.10;;;11.90;65.30;;;;;;4862698;29;20136;-77
2024/03/06 11:25:48;;;;;;;0.10;0.10;;;11.90;64.10;;;;;;4862719;29;20055;-76
2024/03/06 11:28:19;;;;;;;0.10;0.10;;;11.80;63.40;;;;;;4865414;29;20037;-77
2024/03/06 11:30:54;;;;;;;0.10;0.10;;;11.80;63.60;;;;;;4864238;29;20057;-76
2024/03/06 11:33:20;;;;;;;0.10;0.10;;;11.80;63.70;;;;;;4852553;29;20038;-76
2024/03/06 11:36:15;;;;;;;0.10;0.10;;;11.80;64.10;;;;;;4865047;29;20029;-76
2024/03/06 11:38:41;;;;;;;0.10;0.10;;;11.80;64.10;;;;;;4852692;29;20030;-76
2024/03/06 11:41:07;;;;;;;0.10;0.10;;;11.70;64.20;;;;;;4858760;29;20097;-76
2024/03/06 11:43:33;;;;;;;0.10;0.10;;;11.80;64.20;;;;;;4865522;29;20022;-75
2024/03/06 11:46:11;;;;;;;0.10;0.10;;;11.70;63.60;;;;;;4865360;29;20053;-76
2024/03/06 11:48:38;;;;;;;0.10;0.10;;;11.80;65.20;;;;;;4846944;29;20041;-76
2024/03/06 11:51:07;;;;;;;0.10;0.10;;;12.00;65.60;;;;;;4846515;29;20406;-76
2024/03/06 11:53:35;;;;;;;0.10;0.10;;;12.20;66.40;;;;;;4832405;29;20034;-76
2024/03/06 11:56:00;;;;;;;0.10;0.10;;;12.00;65.30;;;;;;4846131;29;20459;-76
2024/03/06 11:58:26;;;;;;;0.10;0.10;;;11.90;65.70;;;;;;4846559;29;20042;-76
2024/03/06 12:00:54;;;;;;;0.10;0.10;;;11.80;65.90;;;;;;4830459;29;20189;-76
2024/03/06 12:03:23;;;;;;;0.20;0.20;;;11.90;66.90;;;;;;4830453;29;20034;-76
2024/03/06 12:05:51;;;;;;;0.10;0.10;;;12.00;67.80;;;;;;4863332;29;20070;-76
2024/03/06 12:08:16;;;;;;;0.10;0.10;;;12.30;66.40;;;;;;4847976;29;20025;-76
2024/03/06 12:10:42;;;;;;;0.10;0.10;;;12.40;66.60;;;;;;4860172;29;20032;-76
2024/03/06 12:13:08;;;;;;;0.10;0.10;;;12.70;64.70;;;;;;4846346;29;20046;-76
2024/03/06 12:15:35;;;;;;;0.10;0.10;;;13.00;65.70;;;;;;4846664;29;20410;-76
2024/03/06 12:18:01;;;;;;;0.10;0.10;;;13.20;64.20;;;;;;4846314;29;20033;-76
2024/03/06 12:20:27;;;;;;;0.10;0.10;;;13.20;62.70;;;;;;4846533;29;20108;-76
2024/03/06 12:22:53;;;;;;;0.10;0.10;;;13.20;64.00;;;;;;4858053;29;20026;-76
2024/03/06 12:25:22;;;;;;;0.10;0.10;;;13.20;63.20;;;;;;4846812;29;20058;-76
2024/03/06 12:27:49;;;;;;;0.10;0.10;;;13.00;63.00;;;;;;4846063;29;20086;-76
2024/03/06 12:30:18;;;;;;;0.20;0.20;;;12.80;63.70;;;;;;4846061;29;20085;-76
2024/03/06 12:32:45;;;;;;;0.10;0.10;;;12.80;64.70;;;;;;4846729;29;20034;-76
2024/03/06 12:35:10;;;;;;;0.20;0.20;;;13.00;63.90;;;;;;4858811;29;20046;-76
2024/03/06 12:37:36;;;;;;;0.10;0.10;;;13.20;65.10;;;;;;4857192;29;20038;-76
2024/03/06 12:40:13;;;;;;;0.10;0.10;;;13.30;64.10;;;;;;4849659;29;20421;-76
2024/03/06 12:42:39;;;;;;;0.10;0.10;;;12.90;63.10;;;;;;4864637;29;20033;-75
2024/03/06 12:45:05;;;;;;;0.10;0.10;;;12.60;65.10;;;;;;4858184;29;20022;-76
2024/03/06 12:47:30;;;;;;;0.10;0.10;;;12.60;65.60;;;;;;4845678;29;20022;-76
2024/03/06 12:49:56;;;;;;;0.10;0.10;;;12.90;65.30;;;;;;4846192;29;20037;-77
2024/03/06 12:52:22;;;;;;;0.10;0.10;;;12.90;64.90;;;;;;4845754;29;20049;-76
2024/03/06 12:54:47;;;;;;;0.10;0.10;;;13.10;64.20;;;;;;4845393;29;20391;-75
2024/03/06 12:57:13;;;;;;;0.10;0.10;;;13.20;63.80;;;;;;4847750;29;20029;-78
2024/03/06 12:59:39;;;;;;;0.10;0.10;;;13.30;64.80;;;;;;4846704;29;20041;-77
2024/03/06 13:02:04;;;;;;;0.13;0.13;;;13.30;64.10;;;;;;4852122;29;20082;-79
2024/03/06 13:04:30;;;;;;;0.10;0.10;;;13.60;64.00;;;;;;4863300;29;20040;-78
2024/03/06 13:06:55;;;;;;;0.20;0.20;;;13.70;62.30;;;;;;4847643;29;20036;-78
2024/03/06 13:09:23;;;;;;;0.10;0.10;;;13.80;62.00;;;;;;4861214;29;20478;-78
2024/03/06 13:11:48;;;;;;;0.20;0.20;;;13.70;61.60;;;;;;4846113;29;20494;-78
2024/03/06 13:14:14;;;;;;;0.20;0.20;;;13.70;61.60;;;;;;4861836;29;20076;-78
2024/03/06 13:16:40;;;;;;;0.10;0.10;;;13.80;62.70;;;;;;4863233;29;20029;-79
2024/03/06 13:19:05;;;;;;;0.10;0.10;;;13.70;61.70;;;;;;4861840;29;20040;-79
2024/03/06 13:21:31;;;;;;;0.10;0.10;;;13.70;63.70;;;;;;4845533;29;20022;-79
2024/03/06 13:23:56;;;;;;;0.10;0.10;;;13.70;62.60;;;;;;4862384;29;20040;-78
2024/03/06 13:26:22;;;;;;;0.10;0.10;;;13.60;62.20;;;;;;4863417;29;20033;-78
2024/03/06 13:28:48;;;;;;;0.10;0.10;;;13.40;62.20;;;;;;4862889;29;20029;-79
2024/03/06 13:31:13;;;;;;;0.10;0.10;;;13.30;62.60;;;;;;4862714;29;20041;-78
2024/03/06 13:33:39;;;;;;;0.10;0.10;;;13.40;63.60;;;;;;4872044;29;20108;-78
2024/03/06 13:36:06;;;;;;;0.10;0.10;;;13.30;63.50;;;;;;4862525;29;20166;-79
2024/03/06 13:38:32;;;;;;;0.10;0.10;;;13.30;64.20;;;;;;4861733;29;20045;-79
2024/03/06 13:40:57;;;;;;;0.10;0.10;;;13.30;63.20;;;;;;4857301;29;20457;-79
2024/03/06 13:43:23;;;;;;;0.10;0.10;;;13.50;64.20;;;;;;4856263;29;20036;-79
2024/03/06 13:45:50;;;;;;;0.10;0.10;;;13.60;62.70;;;;;;4837960;29;20066;-78
2024/03/06 13:48:16;;;;;;;0.10;0.10;;;13.80;62.20;;;;;;4860674;29;20029;-78
2024/03/06 13:50:48;;;;;;;0.10;0.10;;;14.00;61.90;;;;;;4862956;29;20038;-79
2024/03/06 13:53:23;;;;;;;0.10;0.10;;;14.00;61.80;;;;;;4846715;29;20064;-78
2024/03/06 13:55:49;;;;;;;0.10;0.10;;;13.90;63.00;;;;;;4845503;29;20042;-78
2024/03/06 13:58:15;;;;;;;0.10;0.10;;;13.80;64.40;;;;;;4856615;29;20088;-79
2024/03/06 14:00:41;;;;;;;0.10;0.10;;;13.70;63.70;;;;;;4858269;29;20117;-78
2024/03/06 14:03:07;;;;;;;0.10;0.10;;;13.40;64.00;;;;;;4853661;29;20073;-79
2024/03/06 14:05:33;;;;;;;0.10;0.10;;;13.20;64.60;;;;;;4865041;29;20025;-79
2024/03/06 14:07:59;;;;;;;0.10;0.10;;;12.90;65.40;;;;;;4862712;29;20074;-78
2024/03/06 14:10:26;;;;;;;0.10;0.10;;;12.70;66.50;;;;;;4842345;29;20460;-78
2024/03/06 14:12:52;;;;;;;0.10;0.10;;;12.80;66.90;;;;;;4862489;29;20181;-78
2024/03/06 14:15:22;;;;;;;0.10;0.10;;;12.90;66.60;;;;;;4854997;29;20090;-78
2024/03/06 14:17:47;;;;;;;0.10;0.10;;;12.80;66.30;;;;;;4855997;29;20120;-79
2024/03/06 14:20:15;;;;;;;0.10;0.10;;;12.90;67.00;;;;;;4860452;29;20117;-78
2024/03/06 14:22:40;;;;;;;0.10;0.10;;;13.10;67.40;;;;;;4860935;29;20053;-78
2024/03/06 14:25:08;;;;;;;0.10;0.10;;;13.10;66.70;;;;;;4864404;29;20518;-78
2024/03/06 14:27:35;;;;;;;0.10;0.10;;;13.20;66.70;;;;;;4860191;29;20018;-78
2024/03/06 14:30:02;;;;;;;0.10;0.10;;;13.20;66.00;;;;;;4833571;29;20847;-80
2024/03/06 14:32:28;;;;;;;0.10;0.10;;;13.20;64.70;;;;;;4862342;29;20052;-78
2024/03/06 14:34:53;;;;;;;0.10;0.10;;;13.10;64.50;;;;;;4858702;29;20021;-78
2024/03/06 14:37:19;;;;;;;0.10;0.10;;;13.00;65.60;;;;;;4855932;29;20037;-78
2024/03/06 14:39:45;;;;;;;0.10;0.10;;;13.00;66.20;;;;;;4856953;29;20084;-78
2024/03/06 14:42:12;;;;;;;0.10;0.10;;;12.90;64.90;;;;;;4855955;29;20025;-78
2024/03/06 14:44:37;;;;;;;0.10;0.10;;;13.00;65.80;;;;;;4855497;29;20037;-78
2024/03/06 14:47:04;;;;;;;0.10;0.10;;;13.10;65.90;;;;;;4856010;29;20026;-77
2024/03/06 14:49:30;;;;;;;0.10;0.10;;;13.20;66.50;;;;;;4841401;29;20036;-78
2024/03/06 14:51:56;;;;;;;0.10;0.10;;;13.20;65.80;;;;;;4855892;29;20041;-78
2024/03/06 14:54:25;;;;;;;0.10;0.10;;;13.20;66.50;;;;;;4840871;29;20068;-78
2024/03/06 14:56:54;;;;;;;0.10;0.10;;;13.20;67.10;;;;;;4858719;29;20034;-78
2024/03/06 14:59:21;;;;;;;0.10;0.10;;;13.20;67.60;;;;;;4840330;29;20045;-78
2024/03/06 15:01:47;;;;;;;0.10;0.10;;;13.20;67.10;;;;;;4857686;29;20029;-78
2024/03/06 15:04:13;;;;;;;0.10;0.10;;;13.20;67.40;;;;;;4856761;29;20078;-77
2024/03/06 15:06:40;;;;;;;0.10;0.10;;;13.10;67.70;;;;;;4854138;29;20496;-79
2024/03/06 15:09:05;;;;;;;0.10;0.10;;;12.90;66.40;;;;;;4860212;29;20045;-77
2024/03/06 15:11:34;;;;;;;0.10;0.10;;;12.90;68.00;;;;;;4858915;29;20160;-77
2024/03/06 15:13:59;;;;;;;0.10;0.10;;;12.80;67.60;;;;;;4861167;29;20482;-78
2024/03/06 15:16:25;;;;;;;0.10;0.10;;;12.80;67.70;;;;;;4861089;29;20022;-77
2024/03/06 15:18:53;;;;;;;0.10;0.10;;;12.80;68.60;;;;;;4858597;29;20026;-78
2024/03/06 15:21:19;;;;;;;0.10;0.10;;;12.70;69.00;;;;;;4862426;29;20032;-78
2024/03/06 15:23:44;;;;;;;0.10;0.10;;;12.70;68.80;;;;;;4856545;29;20030;-78
2024/03/06 15:26:10;;;;;;;0.10;0.10;;;12.60;69.20;;;;;;4858375;29;20109;-78
2024/03/06 15:28:36;;;;;;;0.10;0.10;;;12.50;68.80;;;;;;4845265;29;20057;-78
2024/03/06 15:31:04;;;;;;;0.10;0.10;;;12.40;68.50;;;;;;4859481;29;20179;-78
2024/03/06 15:33:30;;;;;;;0.10;0.10;;;12.30;69.40;;;;;;4863333;29;20025;-78
2024/03/06 15:35:58;;;;;;;0.10;0.10;;;12.20;67.90;;;;;;4846426;29;20550;-78
2024/03/06 15:38:24;;;;;;;0.10;0.10;;;12.20;68.00;;;;;;4864631;29;20028;-78
2024/03/06 15:40:50;;;;;;;0.10;0.10;;;12.10;67.40;;;;;;4864368;29;20034;-80
2024/03/06 15:43:17;;;;;;;0.10;0.10;;;12.00;68.20;;;;;;4845435;29;20033;-78
2024/03/06 15:45:43;;;;;;;0.10;0.10;;;12.00;68.30;;;;;;4863623;29;20029;-78
2024/03/06 15:48:13;;;;;;;0.10;0.10;;;12.00;68.90;;;;;;4861791;29;20418;-78
2024/03/06 15:50:48;;;;;;;0.10;0.10;;;11.90;67.50;;;;;;4863761;29;20611;-78
2024/03/06 15:53:13;;;;;;;0.10;0.10;;;11.90;68.20;;;;;;4860316;29;20405;-78
2024/03/06 15:55:40;;;;;;;0.10;0.10;;;11.90;68.80;;;;;;4862388;29;20025;-78
2024/03/06 15:58:05;;;;;;;0.10;0.10;;;11.80;68.80;;;;;;4857908;29;20130;-78
2024/03/06 16:00:31;;;;;;;0.10;0.10;;;11.80;69.20;;;;;;4861153;29;20577;-78
2024/03/06 16:02:58;;;;;;;0.00;0.00;;;11.70;69.60;;;;;;4861359;29;20032;-78
2024/03/06 16:05:25;;;;;;;0.10;0.10;;;11.70;69.80;;;;;;4859811;29;20022;-78
2024/03/06 16:07:55;;;;;;;0.10;0.10;;;11.70;69.30;;;;;;4856052;29;20098;-78
2024/03/06 16:10:21;;;;;;;0.10;0.10;;;11.70;69.30;;;;;;4860762;29;20876;-78
2024/03/06 16:12:47;;;;;;;0.10;0.10;;;11.60;68.60;;;;;;4862696;29;20038;-78
2024/03/06 16:15:12;;;;;;;0.10;0.10;;;11.60;69.00;;;;;;4848203;29;20114;-78
2024/03/06 16:17:38;;;;;;;0.10;0.10;;;11.60;69.10;;;;;;4846384;29;20639;-78
2024/03/06 16:20:04;;;;;;;0.10;0.10;;;11.60;69.20;;;;;;4862044;29;20044;-78
2024/03/06 16:22:31;;;;;;;0.10;0.10;;;11.60;69.50;;;;;;4862761;29;20036;-78
2024/03/06 16:24:57;;;;;;;0.10;0.10;;;11.50;69.40;;;;;;4860266;29;20402;-78
2024/03/06 16:27:23;;;;;;;0.10;0.10;;;11.50;69.10;;;;;;4857904;29;20101;-78
2024/03/06 16:29:48;;;;;;;0.10;0.10;;;11.50;69.20;;;;;;4859139;29;20033;-78
2024/03/06 16:32:14;;;;;;;0.10;0.10;;;11.50;69.60;;;;;;4859094;29;20066;-78
2024/03/06 16:34:39;;;;;;;0.10;0.10;;;11.60;69.30;;;;;;4847457;29;20498;-78
2024/03/06 16:37:05;;;;;;;0.10;0.10;;;11.60;69.20;;;;;;4857881;29;20070;-78
2024/03/06 16:39:31;;;;;;;0.10;0.10;;;11.60;69.30;;;;;;4859554;29;20036;-78
2024/03/06 16:41:57;;;;;;;0.10;0.10;;;11.70;69.20;;;;;;4861558;29;20033;-78
2024/03/06 16:44:22;;;;;;;0.10;0.10;;;11.70;68.90;;;;;;4860210;29;20037;-78
2024/03/06 16:46:49;;;;;;;0.10;0.10;;;11.70;68.80;;;;;;4860760;29;20587;-78
2024/03/06 16:49:15;;;;;;;0.10;0.10;;;11.70;68.70;;;;;;4861842;29;20029;-78
2024/03/06 16:51:43;;;;;;;0.10;0.10;;;11.70;68.90;;;;;;4861806;29;20032;-78
2024/03/06 16:54:08;;;;;;;0.10;0.10;;;11.70;69.00;;;;;;4860508;29;20403;-78
2024/03/06 16:56:34;;;;;;;0.10;0.10;;;11.70;69.10;;;;;;4862309;29;20089;-78
2024/03/06 16:59:00;;;;;;;0.10;0.10;;;11.70;69.40;;;;;;4855989;29;20070;-78
2024/03/06 17:01:26;;;;;;;0.10;0.10;;;11.70;69.70;;;;;;4831996;29;20036;-78
2024/03/06 17:03:51;;;;;;;0.10;0.10;;;11.70;69.40;;;;;;4827941;29;20038;-78
2024/03/06 17:06:17;;;;;;;0.10;0.10;;;11.70;69.30;;;;;;4846330;29;20426;-78
2024/03/06 17:08:44;;;;;;;0.10;0.10;;;11.70;70.10;;;;;;4854464;29;20100;-78
2024/03/06 17:11:10;;;;;;;0.10;0.10;;;11.70;70.10;;;;;;4863562;29;20026;-79
2024/03/06 17:13:38;;;;;;;0.10;0.10;;;11.70;69.90;;;;;;4863127;29;20044;-78
2024/03/06 17:16:09;;;;;;;0.10;0.10;;;11.70;70.00;;;;;;4844818;29;20030;-78
2024/03/06 17:18:35;;;;;;;0.10;0.10;;;11.70;69.70;;;;;;4861631;29;20102;-78
2024/03/06 17:21:05;;;;;;;0.10;0.10;;;11.60;69.70;;;;;;4847520;29;20097;-78
2024/03/06 17:23:31;;;;;;;0.10;0.10;;;11.60;69.40;;;;;;4861572;29;20075;-78
2024/03/06 17:25:57;;;;;;;0.10;0.10;;;11.60;69.50;;;;;;4860134;29;20030;-78
2024/03/06 17:28:24;;;;;;;0.10;0.10;;;11.60;69.60;;;;;;4861073;29;20029;-79
2024/03/06 17:30:51;;;;;;;0.10;0.10;;;11.60;69.90;;;;;;4858044;29;20060;-78
2024/03/06 17:33:17;;;;;;;0.10;0.10;;;11.50;69.90;;;;;;4859731;29;20042;-78
2024/03/06 17:35:44;;;;;;;0.10;0.10;;;11.50;69.80;;;;;;4859452;29;20021;-78
2024/03/06 17:38:10;;;;;;;0.10;0.10;;;11.50;69.80;;;;;;4858268;29;20040;-78
2024/03/06 17:40:36;;;;;;;0.10;0.10;;;11.40;70.00;;;;;;4859713;29;20518;-78
2024/03/06 17:43:03;;;;;;;0.10;0.10;;;11.40;70.30;;;;;;4860109;29;20029;-78
2024/03/06 17:45:29;;;;;;;0.10;0.10;;;11.40;70.30;;;;;;4859188;29;20104;-78
2024/03/06 17:47:55;;;;;;;0.10;0.10;;;11.30;70.60;;;;;;4860667;29;20060;-78
2024/03/06 17:50:21;;;;;;;0.00;0.00;;;11.30;70.70;;;;;;4845591;29;20117;-78
2024/03/06 17:52:47;;;;;;;0.10;0.10;;;11.30;71.10;;;;;;4860681;29;20029;-78
2024/03/06 17:55:13;;;;;;;0.10;0.10;;;11.30;71.10;;;;;;4845405;29;20033;-78
2024/03/06 17:57:45;;;;;;;0.10;0.10;;;11.20;71.20;;;;;;4854032;29;20069;-78
2024/03/06 18:00:15;;;;;;;0.10;0.10;;;11.20;71.20;;;;;;4843929;29;20402;-77
2024/03/06 18:02:41;;;;;;;0.10;0.10;;;11.20;71.30;;;;;;4845833;29;20029;-77
2024/03/06 18:05:07;;;;;;;0.10;0.10;;;11.20;71.40;;;;;;4861377;29;20478;-77
2024/03/06 18:07:33;;;;;;;0.10;0.10;;;11.10;71.40;;;;;;4853614;29;20725;-79
2024/03/06 18:09:59;;;;;;;0.10;0.10;;;11.20;71.50;;;;;;4848158;29;20034;-76
2024/03/06 18:12:28;;;;;;;0.10;0.10;;;11.10;71.50;;;;;;4849296;29;20094;-75
2024/03/06 18:14:56;;;;;;;0.10;0.10;;;11.10;71.60;;;;;;4849104;29;20025;-76